This is the latest recevied weather packets stored in our database for station/object DL2DHM-13. If no packets are shown the sender has not sent any weather packets the latest 10 day(s).
| Time | Temp. | Humidity | Pressure | Rain* | Wind** | Luminosity | Snow |
|---|---|---|---|---|---|---|---|
| 1777279825 | 11.11° C | 64% | 1023.6 hPa | 0 mm | - | 329 W/m² | - |
| 1777279525 | 11.11° C | 63% | 1023.6 hPa | 0 mm | - | 374 W/m² | - |
| 1777278320 | 10.56° C | 68% | 1023.7 hPa | 0 mm | - | 396 W/m² | - |
| 1777275914 | 9.44° C | 73% | 1023.7 hPa | 0 mm | - | 348 W/m² | - |
| 1777272965 | 6.67° C | 87% | 1023.8 hPa | 0 mm | - | 329 W/m² | - |
| 1777272357 | 6.11° C | 89% | 1023.9 hPa | 0 mm | - | 267 W/m² | - |
| 1777271152 | 4.44° C | 93% | 1023.7 hPa | 0 mm | - | 195 W/m² | - |
| 1777270250 | 3.33° C | 93% | 1023.7 hPa | 0 mm | - | 141 W/m² | - |
| 1777267543 | 1.11° C | 93% | 1023.6 hPa | 0 mm | - | 44 W/m² | - |
| 1777267243 | 0.56° C | 93% | 1023.6 hPa | 0 mm | - | 46 W/m² | - |
| 1777266959 | 0.56° C | 93% | 1023.7 hPa | 0 mm | - | 46 W/m² | - |
| 1777266642 | 0.56° C | 93% | 1023.7 hPa | 0 mm | - | 46 W/m² | - |
| 1777266341 | 0.56° C | 93% | 1023.7 hPa | 0 mm | - | 40 W/m² | - |
| 1777263334 | 0° C | 92% | 1023.3 hPa | 0 mm | - | 7 W/m² | - |
| 1777263037 | 0° C | 92% | 1023.3 hPa | 0 mm | - | 5 W/m² | - |
| 1777260932 | 0° C | 92% | 1023.2 hPa | 0 mm | - | 0 W/m² | - |
| 1777260633 | 0° C | 92% | 1023.2 hPa | 0 mm | - | 0 W/m² | - |
| 1777257627 | 0.56° C | 91% | 1023.2 hPa | 0 mm | - | 0 W/m² | - |
| 1777254924 | 1.11° C | 90% | 1023.2 hPa | 0 mm | - | 0 W/m² | - |
| 1777252519 | 1.11° C | 89% | 1023.2 hPa | 0 mm | - | 0 W/m² | - |
| 1777252218 | 1.67° C | 89% | 1023.2 hPa | 0 mm | - | 0 W/m² | - |
| 1777251617 | 1.67° C | 89% | 1023.3 hPa | 0 mm | - | 0 W/m² | - |
| 1777248909 | 2.78° C | 86% | 1023.5 hPa | 0 mm | - | 0 W/m² | - |
| 1777248311 | 2.78° C | 86% | 1023.5 hPa | 0 mm | - | 0 W/m² | - |
| 1777247708 | 3.33° C | 85% | 1023.6 hPa | 0 mm | - | 0 W/m² | - |
* Rain latest hour (hover to see other rain measurements)
** Current wind speed in m/s (hover to see current wind gust speed)